createdAt,value
2023-04-04T00:03:17.249Z,76.77
2023-04-04T00:13:20.418Z,76.87
2023-04-04T00:23:23.602Z,76.53
2023-04-04T00:33:27.469Z,76.92
2023-04-04T00:43:31.006Z,76.84
2023-04-04T00:53:34.190Z,76.62
2023-04-04T01:03:40.588Z,76.56
2023-04-04T01:13:45.597Z,76.52
2023-04-04T01:24:07.842Z,75.86
2023-04-04T01:34:51.849Z,75.15
2023-04-04T01:44:57.267Z,74.39
2023-04-04T01:55:08.719Z,73.75
2023-04-04T02:05:13.842Z,72.87
2023-04-04T02:15:18.195Z,72.51
2023-04-04T02:25:26.417Z,72.46
2023-04-04T02:35:30.253Z,72.51
2023-04-04T02:45:34.055Z,72.20
2023-04-04T02:56:04.269Z,71.85
2023-04-04T03:06:08.512Z,72.61
2023-04-04T03:16:13.460Z,72.89
2023-04-04T03:26:33.446Z,73.16
2023-04-04T03:37:03.985Z,73.15
2023-04-04T03:47:07.385Z,73.31
2023-04-04T03:57:11.584Z,73.63
2023-04-04T04:07:18.098Z,73.08
2023-04-04T04:17:22.500Z,73.17
2023-04-04T04:27:30.740Z,73.13
2023-04-04T04:37:35.977Z,73.76
2023-04-04T04:47:42.147Z,73.36
2023-04-04T04:57:49.808Z,73.56
2023-04-04T05:07:59.092Z,73.90
2023-04-04T05:18:13.116Z,74.05
2023-04-04T05:28:32.282Z,74.08
2023-04-04T05:38:38.056Z,73.45
2023-04-04T05:48:42.117Z,73.46
2023-04-04T05:58:49.949Z,73.03
2023-04-04T06:09:08.211Z,71.98
2023-04-04T06:19:32.683Z,70.95
2023-04-04T06:29:37.597Z,70.32
2023-04-04T06:39:43.378Z,69.60
2023-04-04T06:49:58.635Z,69.05
2023-04-04T07:00:03.578Z,68.66
2023-04-04T07:10:08.057Z,68.19
2023-04-04T07:20:12.055Z,67.69
2023-04-04T07:30:16.703Z,66.91
2023-04-04T07:40:23.343Z,65.88
2023-04-04T07:50:29.132Z,66.32
2023-04-04T08:00:33.514Z,64.13
2023-04-04T08:10:37.873Z,63.11
2023-04-04T08:20:42.880Z,62.63
2023-04-04T08:30:46.456Z,62.46
2023-04-04T08:40:51.710Z,62.95
2023-04-04T08:51:12.196Z,62.91
2023-04-04T09:01:17.597Z,61.58
2023-04-04T09:11:23.971Z,61.68
2023-04-04T09:21:29.387Z,60.46
2023-04-04T09:31:34.344Z,58.32
2023-04-04T09:41:39.930Z,57.36
2023-04-04T09:51:48.756Z,55.24
2023-04-04T10:01:56.205Z,56.81
2023-04-04T10:12:12.601Z,55.01
2023-04-04T10:22:17.318Z,55.15
2023-04-04T10:32:29.487Z,52.44
2023-04-04T10:42:41.049Z,50.43
2023-04-04T10:52:46.472Z,50.20
2023-04-04T11:03:01.402Z,50.85
2023-04-04T11:13:25.731Z,49.87
2023-04-04T11:23:49.789Z,48.02
2023-04-04T11:34:14.096Z,48.46
2023-04-04T11:44:19.861Z,47.84
2023-04-04T11:54:26.018Z,47.12
2023-04-04T12:04:29.947Z,47.02
2023-04-04T12:14:35.468Z,47.96
2023-04-04T12:24:39.066Z,47.06
2023-04-04T12:34:50.017Z,48.98
2023-04-04T12:44:59.446Z,47.82
2023-04-04T12:55:11.176Z,49.10
2023-04-04T13:05:18.032Z,47.98
2023-04-04T13:15:21.495Z,49.12
2023-04-04T13:25:27.354Z,47.69
2023-04-04T13:35:32.494Z,49.02
2023-04-04T13:45:36.660Z,49.61
2023-04-04T13:56:16.851Z,49.01
2023-04-04T14:06:22.220Z,50.10
2023-04-04T14:16:25.877Z,49.77
2023-04-04T14:26:31.280Z,50.49
2023-04-04T14:36:37.965Z,51.88
2023-04-04T14:46:42.294Z,52.13
2023-04-04T14:56:45.880Z,53.73
2023-04-04T15:06:50.449Z,54.68
2023-04-04T15:16:57.353Z,56.12
2023-04-04T15:27:16.320Z,57.05
2023-04-04T15:37:20.090Z,57.78
2023-04-04T15:47:29.798Z,57.87
2023-04-04T15:57:47.374Z,57.31
2023-04-04T16:07:58.157Z,57.94
2023-04-04T16:18:11.406Z,58.07
2023-04-04T16:28:21.640Z,58.53
2023-04-04T16:38:46.397Z,59.21
2023-04-04T16:48:51.522Z,59.04
2023-04-04T16:58:57.086Z,58.33
2023-04-04T17:09:01.715Z,58.77
2023-04-04T17:19:07.427Z,58.67
2023-04-04T17:29:11.578Z,59.13
2023-04-04T17:39:25.899Z,59.71
2023-04-04T17:49:30.724Z,60.01
2023-04-04T17:59:34.186Z,59.93
2023-04-04T18:09:38.062Z,59.46
2023-04-04T18:20:24.287Z,59.39
2023-04-04T18:30:54.044Z,58.24
2023-04-04T18:41:03.789Z,58.56
2023-04-04T18:51:08.259Z,58.91
2023-04-04T19:01:29.305Z,59.45
2023-04-04T19:11:43.844Z,59.55
2023-04-04T19:21:48.253Z,59.42
2023-04-04T19:31:56.421Z,59.88
2023-04-04T19:42:41.928Z,59.86
2023-04-04T19:53:02.897Z,58.80
2023-04-04T20:03:27.111Z,58.71
2023-04-04T20:13:36.341Z,58.45
2023-04-04T20:23:50.999Z,58.24
2023-04-04T20:34:01.010Z,58.12
2023-04-04T20:44:24.655Z,58.40
2023-04-04T20:54:35.034Z,58.00
2023-04-04T21:05:04.718Z,58.56
2023-04-04T21:15:28.770Z,59.46
2023-04-04T21:25:57.211Z,61.12
2023-04-04T21:36:00.734Z,62.31
2023-04-04T21:46:05.317Z,63.26
2023-04-04T21:56:08.741Z,64.74
2023-04-04T22:06:12.388Z,65.96
2023-04-04T22:16:20.666Z,66.80
2023-04-04T22:26:32.717Z,67.63
2023-04-04T22:36:45.215Z,68.56
2023-04-04T22:46:50.135Z,69.66
2023-04-04T22:56:54.494Z,70.29
2023-04-04T23:06:58.631Z,70.59
2023-04-04T23:17:02.405Z,71.07
2023-04-04T23:27:06.404Z,71.37
2023-04-04T23:37:10.090Z,71.37
2023-04-04T23:47:14.320Z,71.96
2023-04-04T23:57:19.305Z,72.82
